AFL7247 UHWW-UHMP
Flight info
| Callsign | AFL7247 |
|---|---|
| Flight time | N/A |
| Altitude | 35000 |
| Route | DOLMA2P DOLMA B356 TD B355 HAB N222 NA L160 MOLUT/K0878F370 L160 OSKON A803 OKEPA T454 MAKUB MAKUB1K |
| Aircraft | B77W/H-SDE1E2E3FGHIJ2J3J4J5M1RWXY/LB1D1 |
Departure
| Time | 2026-04-20 18:34 |
|---|---|
| Airport | Vladivostok International Airport (UHWW) |
Arrival
| Time | N/A |
|---|---|
| Airport | Pevek Airport (UHMP) |
| Time | Latitude | Longitude | Altitude | Speed | Heading |
|---|---|---|---|---|---|
| 2026-04-20 18:00 | 43.39728 | 132.16474 | 66 ft | 0 kts | 152° |
| 2026-04-20 18:24 | 43.39796 | 132.16425 | 74 ft | 4 kts | 152° |
| 2026-04-20 18:25 | 43.39798 | 132.16422 | 73 ft | 4 kts | 179° |
| 2026-04-20 18:25 | 43.39786 | 132.16389 | 74 ft | 2 kts | 61° |
| 2026-04-20 18:25 | 43.39780 | 132.16375 | 74 ft | 0 kts | 62° |
| 2026-04-20 18:28 | 43.39781 | 132.16376 | 74 ft | 2 kts | 62° |
| 2026-04-20 18:29 | 43.39807 | 132.16442 | 72 ft | 15 kts | 62° |
| 2026-04-20 18:29 | 43.39879 | 132.16618 | 64 ft | 25 kts | 60° |
| 2026-04-20 18:29 | 43.39964 | 132.16826 | 64 ft | 25 kts | 61° |
| 2026-04-20 18:29 | 43.40042 | 132.17021 | 66 ft | 8 kts | 61° |
| 2026-04-20 18:30 | 43.40078 | 132.17074 | 68 ft | 8 kts | 26° |
| 2026-04-20 18:30 | 43.40131 | 132.17064 | 65 ft | 8 kts | 338° |
| 2026-04-20 18:30 | 43.40181 | 132.17031 | 74 ft | 8 kts | 334° |
| 2026-04-20 18:30 | 43.40229 | 132.16998 | 64 ft | 8 kts | 333° |
| 2026-04-20 18:31 | 43.40278 | 132.16963 | 63 ft | 8 kts | 333° |
| 2026-04-20 18:31 | 43.40327 | 132.16928 | 66 ft | 8 kts | 332° |
| 2026-04-20 18:31 | 43.40353 | 132.16909 | 66 ft | 1 kts | 332° |
| 2026-04-20 18:31 | 43.40372 | 132.16896 | 63 ft | 6 kts | 332° |
| 2026-04-20 18:32 | 43.40414 | 132.16850 | 72 ft | 11 kts | 301° |
| 2026-04-20 18:32 | 43.40399 | 132.16721 | 72 ft | 17 kts | 241° |
| 2026-04-20 18:32 | 43.40359 | 132.16619 | 69 ft | 0 kts | 241° |
| 2026-04-20 18:33 | 43.40340 | 132.16571 | 65 ft | 30 kts | 241° |
| 2026-04-20 18:33 | 43.40110 | 132.15998 | 63 ft | 104 kts | 241° |
| 2026-04-20 18:34 | 43.39649 | 132.14873 | 70 ft | 163 kts | 241° |
| 2026-04-20 18:34 | 43.39053 | 132.13456 | 463 ft | 174 kts | 239° |
| 2026-04-20 18:34 | 43.38425 | 132.11918 | 778 ft | 197 kts | 241° |
| 2026-04-20 18:34 | 43.37757 | 132.10219 | 1225 ft | 206 kts | 241° |
| 2026-04-20 18:35 | 43.37065 | 132.08484 | 1744 ft | 214 kts | 241° |
| 2026-04-20 18:35 | 43.36305 | 132.06595 | 2042 ft | 237 kts | 241° |
| 2026-04-20 18:35 | 43.35489 | 132.04576 | 2613 ft | 246 kts | 241° |
| 2026-04-20 18:35 | 43.34630 | 132.02528 | 3273 ft | 249 kts | 234° |
| 2026-04-20 18:36 | 43.33297 | 132.01005 | 3902 ft | 256 kts | 204° |
| 2026-04-20 18:36 | 43.31525 | 132.00602 | 4630 ft | 265 kts | 177° |
| 2026-04-20 18:36 | 43.29736 | 132.01373 | 5272 ft | 279 kts | 152° |
| 2026-04-20 18:36 | 43.28294 | 132.03233 | 5845 ft | 293 kts | 124° |
| 2026-04-20 18:37 | 43.27563 | 132.05867 | 6413 ft | 302 kts | 95° |
| 2026-04-20 18:37 | 43.27719 | 132.08687 | 7031 ft | 302 kts | 73° |
| 2026-04-20 18:37 | 43.28299 | 132.11461 | 7763 ft | 303 kts | 69° |
| 2026-04-20 18:37 | 43.28966 | 132.14220 | 8424 ft | 307 kts | 67° |
| 2026-04-20 18:38 | 43.29644 | 132.17022 | 9087 ft | 311 kts | 67° |
| 2026-04-20 18:38 | 43.30306 | 132.19859 | 9768 ft | 314 kts | 69° |
| 2026-04-20 18:38 | 43.30957 | 132.22751 | 10333 ft | 321 kts | 69° |
| 2026-04-20 18:38 | 43.31622 | 132.25788 | 10559 ft | 344 kts | 70° |
| 2026-04-20 18:39 | 43.32321 | 132.29041 | 10756 ft | 367 kts | 71° |
| 2026-04-20 18:39 | 43.33064 | 132.32517 | 11006 ft | 388 kts | 71° |
| 2026-04-20 18:39 | 43.33817 | 132.36079 | 11647 ft | 399 kts | 71° |
| 2026-04-20 18:39 | 43.34596 | 132.39773 | 12404 ft | 405 kts | 71° |
| 2026-04-20 18:40 | 43.35616 | 132.43355 | 12985 ft | 405 kts | 55° |
| 2026-04-20 18:40 | 43.37487 | 132.46197 | 13655 ft | 400 kts | 32° |
| 2026-04-20 18:40 | 43.39865 | 132.48094 | 14528 ft | 393 kts | 16° |
| 2026-04-20 18:40 | 43.42458 | 132.49195 | 15225 ft | 392 kts | 9° |
| 2026-04-20 18:41 | 43.45119 | 132.50151 | 15885 ft | 399 kts | 8° |
| 2026-04-20 18:41 | 43.47823 | 132.51096 | 16583 ft | 402 kts | 8° |
| 2026-04-20 18:41 | 43.50564 | 132.52064 | 16733 ft | 411 kts | 8° |
| 2026-04-20 18:41 | 43.53290 | 132.53048 | 16711 ft | 409 kts | 9° |
| 2026-04-20 18:42 | 43.56030 | 132.54053 | 16710 ft | 406 kts | 9° |
| 2026-04-20 18:42 | 43.58751 | 132.55063 | 16706 ft | 405 kts | 9° |
| 2026-04-20 18:42 | 43.61475 | 132.56082 | 16727 ft | 406 kts | 9° |
| 2026-04-20 18:42 | 43.64198 | 132.57100 | 16712 ft | 406 kts | 9° |
| 2026-04-20 18:43 | 43.66927 | 132.58125 | 16709 ft | 407 kts | 9° |
| 2026-04-20 18:43 | 43.69659 | 132.59149 | 16715 ft | 407 kts | 9° |
| 2026-04-20 18:43 | 43.72395 | 132.60177 | 16710 ft | 407 kts | 9° |
| 2026-04-20 18:43 | 43.75093 | 132.61190 | 16714 ft | 408 kts | 9° |
| 2026-04-20 18:44 | 43.77830 | 132.62218 | 16706 ft | 408 kts | 9° |
| 2026-04-20 18:44 | 43.80524 | 132.63411 | 16705 ft | 410 kts | 19° |
| 2026-04-20 18:44 | 43.82907 | 132.65646 | 16715 ft | 417 kts | 38° |
| 2026-04-20 18:44 | 43.85050 | 132.68426 | 16739 ft | 426 kts | 39° |
| 2026-04-20 18:45 | 43.87235 | 132.71221 | 16715 ft | 428 kts | 38° |
| 2026-04-20 18:45 | 43.89434 | 132.73993 | 16709 ft | 427 kts | 38° |
| 2026-04-20 18:45 | 43.91639 | 132.76745 | 16707 ft | 426 kts | 38° |
| 2026-04-20 18:45 | 43.93820 | 132.79448 | 16712 ft | 426 kts | 38° |
| 2026-04-20 18:46 | 43.96031 | 132.82182 | 16715 ft | 426 kts | 38° |
| 2026-04-20 18:46 | 43.98246 | 132.84920 | 16704 ft | 426 kts | 38° |
| 2026-04-20 18:46 | 44.00464 | 132.87663 | 16709 ft | 427 kts | 38° |
| 2026-04-20 18:46 | 44.02679 | 132.90405 | 16702 ft | 428 kts | 39° |
| 2026-04-20 18:47 | 44.04899 | 132.93160 | 16697 ft | 429 kts | 40° |
| 2026-04-20 18:47 | 44.07126 | 132.95927 | 16701 ft | 429 kts | 40° |
| 2026-04-20 18:47 | 44.09351 | 132.98691 | 16698 ft | 430 kts | 40° |
| 2026-04-20 18:47 | 44.11583 | 133.01467 | 16700 ft | 430 kts | 40° |
| 2026-04-20 18:48 | 44.13816 | 133.04252 | 16708 ft | 432 kts | 40° |
| 2026-04-20 18:48 | 44.16023 | 133.07003 | 16699 ft | 433 kts | 40° |
| 2026-04-20 18:48 | 44.18269 | 133.09806 | 16701 ft | 434 kts | 41° |
| 2026-04-20 18:48 | 44.20528 | 133.12586 | 16704 ft | 434 kts | 39° |
| 2026-04-20 18:49 | 44.22905 | 133.15180 | 16693 ft | 434 kts | 36° |
| 2026-04-20 18:49 | 44.25337 | 133.17676 | 16693 ft | 435 kts | 34° |
| 2026-04-20 18:49 | 44.27795 | 133.20151 | 16696 ft | 436 kts | 34° |
| 2026-04-20 18:49 | 44.30252 | 133.22624 | 16704 ft | 437 kts | 35° |
| 2026-04-20 18:50 | 44.32733 | 133.25140 | 17254 ft | 443 kts | 35° |
| 2026-04-20 18:50 | 44.35195 | 133.27659 | 18008 ft | 447 kts | 36° |
| 2026-04-20 18:50 | 44.37716 | 133.30252 | 18680 ft | 453 kts | 36° |
| 2026-04-20 18:50 | 44.40267 | 133.32889 | 19295 ft | 460 kts | 37° |
| 2026-04-20 18:51 | 44.42855 | 133.35572 | 19912 ft | 466 kts | 37° |
| 2026-04-20 18:51 | 44.45476 | 133.38298 | 20470 ft | 473 kts | 37° |
| 2026-04-20 18:51 | 44.48131 | 133.41058 | 21069 ft | 478 kts | 38° |
| 2026-04-20 18:51 | 44.50812 | 133.43848 | 21660 ft | 483 kts | 38° |
| 2026-04-20 18:52 | 44.53668 | 133.46825 | 22242 ft | 489 kts | 38° |
| 2026-04-20 18:52 | 44.71213 | 133.65158 | 25713 ft | 511 kts | 39° |
| 2026-04-20 18:52 | 44.93794 | 133.89000 | 29041 ft | 539 kts | 39° |